Time,TemperatureF,DewpointF,PressureIn,WindDirection,WindDirectionDegrees,WindSpeedMPH,WindSpeedGustMPH,Humidity,HourlyPrecipIn,Conditions,Clouds,dailyrainin,SolarRadiationWatts/m^2,SoftwareType,DateUTC
2013-06-20 00:00:00,53.0,47.0,-100.00,NNW,330,1.0,3.0,80,-99.99,,,0.00,0.120000,,2013-06-20 07:00:00,
2013-06-20 00:43:00,53.0,47.0,-100.00,NNW,330,1.0,3.0,80,-99.99,,,0.00,0.120000,,2013-06-20 07:43:00,
2013-06-20 00:53:00,53.0,47.0,-100.00,NNW,330,1.0,3.0,80,-99.99,,,0.00,0.120000,,2013-06-20 07:53:00,
2013-06-20 01:00:00,55.0,47.0,-100.00,NW,304,3.0,8.0,72,-99.99,,,0.00,0.120000,,2013-06-20 08:00:00,
2013-06-20 01:43:00,55.0,47.0,-100.00,NW,304,3.0,8.0,72,-99.99,,,0.00,0.120000,,2013-06-20 08:43:00,
2013-06-20 01:53:00,55.0,47.0,-100.00,NW,304,3.0,8.0,72,-99.99,,,0.00,0.120000,,2013-06-20 08:53:00,
2013-06-20 02:00:00,55.0,48.0,-100.00,North,350,3.0,4.0,76,-99.99,,,0.00,0.120000,,2013-06-20 09:00:00,
2013-06-20 02:42:00,55.0,48.0,-100.00,North,350,3.0,4.0,76,-99.99,,,0.00,0.120000,,2013-06-20 09:42:00,
2013-06-20 02:52:00,55.0,48.0,-100.00,North,350,3.0,4.0,76,-99.99,,,0.00,0.120000,,2013-06-20 09:52:00,
2013-06-20 03:00:00,54.0,47.0,-100.00,WNW,300,2.0,4.0,77,-99.99,,,0.00,0.120000,,2013-06-20 10:00:00,
2013-06-20 03:43:00,54.0,47.0,-100.00,WNW,300,2.0,4.0,77,-99.99,,,0.00,0.120000,,2013-06-20 10:43:00,
2013-06-20 03:53:00,54.0,47.0,-100.00,WNW,300,2.0,4.0,77,-99.99,,,0.00,0.120000,,2013-06-20 10:53:00,
2013-06-20 04:00:00,54.0,48.0,-100.00,NNW,348,2.0,4.0,79,-99.99,,,0.00,0.120000,,2013-06-20 11:00:00,
2013-06-20 04:42:00,54.0,48.0,-100.00,NNW,348,2.0,4.0,79,-99.99,,,0.00,0.120000,,2013-06-20 11:42:00,
2013-06-20 04:53:00,54.0,48.0,-100.00,NNW,348,2.0,4.0,79,-99.99,,,0.00,0.120000,,2013-06-20 11:53:00,
2013-06-20 05:00:00,54.0,47.0,-100.00,NW,325,4.0,7.0,79,-99.99,,,0.00,0.120000,,2013-06-20 12:00:00,
2013-06-20 05:43:00,54.0,47.0,-100.00,NW,325,4.0,7.0,79,-99.99,,,0.00,0.120000,,2013-06-20 12:43:00,
2013-06-20 05:53:00,54.0,47.0,-100.00,NW,325,4.0,7.0,79,-99.99,,,0.00,0.120000,,2013-06-20 12:53:00,
2013-06-20 06:00:00,53.0,48.0,-100.00,WNW,294,2.0,3.0,83,-99.99,,,0.00,12.780000,,2013-06-20 13:00:00,
2013-06-20 06:42:00,53.0,48.0,-100.00,WNW,294,2.0,3.0,83,-99.99,,,0.00,12.780000,,2013-06-20 13:42:00,
2013-06-20 06:53:00,53.0,48.0,-100.00,WNW,294,2.0,3.0,83,-99.99,,,0.00,12.780000,,2013-06-20 13:53:00,
2013-06-20 07:00:00,55.0,48.0,-100.00,NNW,337,1.0,4.0,78,-99.99,,,0.00,126.209999,,2013-06-20 14:00:00,
2013-06-20 07:42:00,55.0,48.0,-100.00,NNW,337,1.0,4.0,78,-99.99,,,0.00,126.209999,,2013-06-20 14:42:00,
2013-06-20 07:53:00,55.0,48.0,-100.00,NNW,337,1.0,4.0,78,-99.99,,,0.00,126.209999,,2013-06-20 14:53:00,
2013-06-20 08:00:00,56.0,48.0,-100.00,NW,316,4.0,10.0,75,-99.99,,,0.00,169.679993,,2013-06-20 15:00:00,
2013-06-20 08:43:00,56.0,48.0,-100.00,NW,316,4.0,10.0,75,-99.99,,,0.00,169.679993,,2013-06-20 15:43:00,
2013-06-20 08:53:00,56.0,48.0,-100.00,NW,316,4.0,10.0,75,-99.99,,,0.00,169.679993,,2013-06-20 15:53:00,
2013-06-20 09:00:00,58.0,48.0,-100.00,WNW,299,3.0,7.0,70,-99.99,,,0.00,207.570007,,2013-06-20 16:00:00,
2013-06-20 09:42:00,58.0,48.0,-100.00,WNW,299,3.0,7.0,70,-99.99,,,0.00,207.570007,,2013-06-20 16:42:00,
2013-06-20 09:52:00,58.0,48.0,-100.00,WNW,299,3.0,7.0,70,-99.99,,,0.00,207.570007,,2013-06-20 16:52:00,
2013-06-20 10:00:00,57.0,48.0,-100.00,NW,323,7.0,13.0,70,-99.99,,,0.00,260.570007,,2013-06-20 17:00:00,
2013-06-20 10:43:00,57.0,48.0,-100.00,NW,323,7.0,13.0,70,-99.99,,,0.00,260.570007,,2013-06-20 17:43:00,
2013-06-20 10:53:00,57.0,48.0,-100.00,NW,323,7.0,13.0,70,-99.99,,,0.00,260.570007,,2013-06-20 17:53:00,
2013-06-20 11:00:00,59.0,48.0,-100.00,NW,325,7.0,14.0,68,-99.99,,,0.00,240.460007,,2013-06-20 18:00:00,
2013-06-20 11:43:00,59.0,48.0,-100.00,NW,325,7.0,14.0,68,-99.99,,,0.00,240.460007,,2013-06-20 18:43:00,
2013-06-20 11:53:00,59.0,48.0,-100.00,NW,325,7.0,14.0,68,-99.99,,,0.00,240.460007,,2013-06-20 18:53:00,
2013-06-20 12:00:00,60.0,48.0,-100.00,NNW,331,8.0,16.0,66,-99.99,,,0.00,386.779999,,2013-06-20 19:00:00,
2013-06-20 12:43:00,60.0,48.0,-100.00,NNW,331,8.0,16.0,66,-99.99,,,0.00,386.779999,,2013-06-20 19:43:00,
2013-06-20 12:52:00,60.0,48.0,-100.00,NNW,331,8.0,16.0,66,-99.99,,,0.00,386.779999,,2013-06-20 19:52:00,
2013-06-20 13:00:00,60.0,48.0,-100.00,WNW,299,6.0,12.0,63,-99.99,,,0.00,274.160004,,2013-06-20 20:00:00,
2013-06-20 13:42:00,60.0,48.0,-100.00,WNW,299,6.0,12.0,63,-99.99,,,0.00,274.160004,,2013-06-20 20:42:00,
2013-06-20 13:52:00,60.0,48.0,-100.00,WNW,299,6.0,12.0,63,-99.99,,,0.00,274.160004,,2013-06-20 20:52:00,